KMXO/MXO METAR and TAF weather

Enter ICAO airport designator
Station Type Date Time Source
KMXO METAR 2021/01/16 02:35 UTC NOAA

KMXO 160235Z AUTO 33005KT 10SM OVC060 M00/M00 A2965 RMK AO2


Station Type Date Time Source
KMXO Decoded METAR 2021/01/16 02:35 UTC NOAA

Monticello Municipal, IA, United States (KMXO) 42-14N 091-10W
Jan 15, 2021 - 09:35 PM EST / 2021.01.16 0235 UTC
Wind: from the NNW (330 degrees) at 6 MPH (5 KT):0
Visibility: 10 mile(s):0
Sky conditions: overcast
Temperature: 32 F (0 C)
Windchill: 26 F (-3 C):1
Dew Point: 32 F (0 C)
Relative Humidity: 100%
Pressure (altimeter): 29.65 in. Hg (1004 hPa)
ob: KMXO 160235Z AUTO 33005KT 10SM OVC060 M00/M00 A2965 RMK AO2
cycle: 2

Station Type Date Time Source
KMXO TAF UTC NOAA

Error!

Example: see airport list